Time;durP1;ratioP1;P1;durP2;ratioP2;P2;SDS_P1;SDS_P2;PMS_P1;PMS_P2;Temp;Humidity;BMP_temperature;BMP_pressure;BME280_temperature;BME280_humidity;BME280_pressure;Samples;Min_cycle;Max_cycle;Signal;HPM_P1;HPM_P2
2024/04/13 00:00:38;;;;;;;;;;;;;;;10.16;54.46;96753.59;5393233;26;20644;-67
2024/04/13 00:03:03;;;;;;;;;;;;;;;10.21;53.25;96740.66;5387611;26;20352;-68
2024/04/13 00:05:29;;;;;;;;;;;;;;;10.20;54.26;96744.31;5392926;26;20703;-66
2024/04/13 00:07:55;;;;;;;;;;;;;;;10.14;53.56;96734.28;5393689;26;20265;-68
2024/04/13 00:10:20;;;;;;;;;;;;;;;10.08;53.37;96730.41;5395238;26;19929;-65
2024/04/13 00:12:45;;;;;;;;;;;;;;;9.98;52.95;96733.06;5393671;26;19936;-68
2024/04/13 00:15:11;;;;;;;;;;;;;;;9.93;51.98;96731.84;5394796;26;19936;-66
2024/04/13 00:17:36;;;;;;;;;;;;;;;9.96;53.38;96734.19;5390535;26;19961;-68
2024/04/13 00:20:01;;;;;;;;;;;;;;;9.88;53.40;96736.72;5399223;26;19929;-66
2024/04/13 00:22:26;;;;;;;;;;;;;;;9.90;53.82;96737.44;5394436;26;20474;-67
2024/04/13 00:24:52;;;;;;;;;;;;;;;9.91;54.15;96741.78;5392652;26;19948;-66
2024/04/13 00:27:17;;;;;;;;;;;;;;;9.88;53.69;96734.06;5393750;26;20989;-67
2024/04/13 00:29:44;;;;;;;;;;;;;;;9.87;53.84;96727.94;5389262;26;19929;-66
2024/04/13 00:32:10;;;;;;;;;;;;;;;9.90;54.00;96726.81;5393259;26;19929;-67
2024/04/13 00:34:35;;;;;;;;;;;;;;;9.88;53.89;96729.59;5393328;26;20475;-66
2024/04/13 00:37:03;;;;;;;;;;;;;;;9.87;54.14;96735.91;5392540;26;20531;-65
2024/04/13 00:39:28;;;;;;;;;;;;;;;9.90;54.02;96734.78;5382615;26;19929;-67
2024/04/13 00:41:54;;;;;;;;;;;;;;;9.86;54.30;96723.56;5394107;26;19929;-66
2024/04/13 00:44:20;;;;;;;;;;;;;;;9.84;54.33;96729.06;5388765;26;19941;-67
2024/04/13 00:46:45;;;;;;;;;;;;;;;9.85;54.07;96721.91;5397374;26;20261;-67
2024/04/13 00:49:13;;;;;;;;;;;;;;;9.82;54.17;96724.84;5393454;26;19936;-67
2024/04/13 00:51:46;;;;;;;;;;;;;;;9.84;54.37;96718.44;5389010;26;20277;-65
2024/04/13 00:54:14;;;;;;;;;;;;;;;9.74;54.49;96727.41;5394404;26;20002;-67
2024/04/13 00:56:40;;;;;;;;;;;;;;;9.77;54.88;96720.00;5393155;26;19936;-67
2024/04/13 00:59:06;;;;;;;;;;;;;;;9.68;53.91;96715.53;5395995;26;19936;-65
2024/04/13 01:01:31;;;;;;;;;;;;;;;9.65;53.40;96718.50;5391256;26;20274;-67
2024/04/13 01:03:56;;;;;;;;;;;;;;;9.61;53.20;96719.75;5393002;26;20339;-67
2024/04/13 01:06:22;;;;;;;;;;;;;;;9.55;51.93;96707.88;5393193;26;19937;-67
2024/04/13 01:08:50;;;;;;;;;;;;;;;9.43;51.39;96716.03;5392371;26;19943;-67
2024/04/13 01:11:15;;;;;;;;;;;;;;;9.33;50.78;96713.41;5393450;26;19928;-66
2024/04/13 01:13:41;;;;;;;;;;;;;;;9.21;50.53;96714.53;5391582;26;19936;-66
2024/04/13 01:16:07;;;;;;;;;;;;;;;9.07;50.85;96714.00;5393456;26;19982;-67
2024/04/13 01:18:32;;;;;;;;;;;;;;;8.97;50.75;96720.31;5395848;26;20254;-66
2024/04/13 01:20:57;;;;;;;;;;;;;;;8.92;51.56;96715.38;5396929;26;19940;-66
2024/04/13 01:23:23;;;;;;;;;;;;;;;8.87;51.36;96710.47;5392694;26;19941;-67
2024/04/13 01:25:48;;;;;;;;;;;;;;;8.80;51.05;96710.22;5393988;26;19940;-66
2024/04/13 01:28:13;;;;;;;;;;;;;;;8.82;51.44;96712.72;5389895;26;20478;-67
2024/04/13 01:30:39;;;;;;;;;;;;;;;8.76;51.58;96711.47;5393121;26;19929;-66
2024/04/13 01:33:04;;;;;;;;;;;;;;;8.68;51.15;96711.31;5391654;26;19928;-66
2024/04/13 01:35:30;;;;;;;;;;;;;;;8.59;51.15;96712.13;5391297;26;20026;-67
2024/04/13 01:37:55;;;;;;;;;;;;;;;8.50;51.83;96712.00;5382793;26;19929;-67
2024/04/13 01:40:20;;;;;;;;;;;;;;;8.47;52.05;96717.56;5389685;26;19936;-67
2024/04/13 01:42:46;;;;;;;;;;;;;;;8.48;51.79;96721.94;5389218;26;20270;-66
2024/04/13 01:45:11;;;;;;;;;;;;;;;8.42;51.74;96720.66;5392817;26;19929;-67
2024/04/13 01:47:37;;;;;;;;;;;;;;;8.31;52.83;96723.44;5397574;26;20048;-67
2024/04/13 01:50:02;;;;;;;;;;;;;;;8.24;53.33;96719.63;5395624;26;20502;-66
2024/04/13 01:52:28;;;;;;;;;;;;;;;8.13;53.52;96717.94;5392531;26;20133;-67
2024/04/13 01:54:53;;;;;;;;;;;;;;;8.21;53.40;96717.25;5393074;26;19937;-66
2024/04/13 01:57:19;;;;;;;;;;;;;;;8.16;53.00;96709.72;5392336;26;19995;-65
2024/04/13 01:59:44;;;;;;;;;;;;;;;8.14;52.72;96704.56;5392622;26;19944;-66
2024/04/13 02:02:10;;;;;;;;;;;;;;;8.14;52.74;96706.34;5392011;26;19940;-66
2024/04/13 02:04:35;;;;;;;;;;;;;;;8.03;52.32;96702.81;5383185;26;19929;-65
2024/04/13 02:07:01;;;;;;;;;;;;;;;8.02;52.54;96697.66;5392630;26;19929;-66
2024/04/13 02:09:26;;;;;;;;;;;;;;;7.98;52.46;96698.91;5388434;26;20427;-67
2024/04/13 02:11:51;;;;;;;;;;;;;;;7.92;52.69;96698.47;5393105;26;19939;-67
2024/04/13 02:14:16;;;;;;;;;;;;;;;7.96;52.60;96703.50;5388437;26;19936;-66
2024/04/13 02:16:42;;;;;;;;;;;;;;;7.94;53.01;96702.78;5392897;26;20351;-66
2024/04/13 02:19:07;;;;;;;;;;;;;;;7.90;52.93;96703.09;5390242;26;19936;-67
2024/04/13 02:21:32;;;;;;;;;;;;;;;7.86;53.16;96696.34;5392235;26;20277;-66
2024/04/13 02:23:57;;;;;;;;;;;;;;;7.87;53.04;96698.03;5392155;26;19933;-66
2024/04/13 02:26:23;;;;;;;;;;;;;;;7.89;53.22;96704.03;5392146;26;19929;-67
2024/04/13 02:28:48;;;;;;;;;;;;;;;7.89;53.33;96705.88;5391376;26;19929;-66
2024/04/13 02:31:13;;;;;;;;;;;;;;;7.86;53.65;96706.13;5388696;26;20335;-67
2024/04/13 02:33:39;;;;;;;;;;;;;;;7.84;53.45;96706.25;5389571;26;20737;-66
2024/04/13 02:36:04;;;;;;;;;;;;;;;7.84;53.29;96702.75;5392383;26;20570;-66
2024/04/13 02:38:30;;;;;;;;;;;;;;;7.77;52.91;96697.16;5385811;26;19935;-67
2024/04/13 02:40:58;;;;;;;;;;;;;;;7.72;52.62;96689.56;5392193;26;19929;-66
2024/04/13 02:43:24;;;;;;;;;;;;;;;7.70;52.42;96685.38;5383739;26;19936;-67
2024/04/13 02:45:49;;;;;;;;;;;;;;;7.59;50.81;96687.16;5395266;26;19937;-67
2024/04/13 02:48:14;;;;;;;;;;;;;;;7.50;51.42;96691.44;5387583;26;19930;-67
2024/04/13 02:50:40;;;;;;;;;;;;;;;7.42;50.72;96691.25;5393949;26;19933;-67
2024/04/13 02:53:06;;;;;;;;;;;;;;;7.36;51.08;96681.19;5395097;26;20733;-66
2024/04/13 02:55:31;;;;;;;;;;;;;;;7.32;51.40;96672.66;5395046;26;19940;-67
2024/04/13 02:57:56;;;;;;;;;;;;;;;7.28;50.80;96674.72;5389423;26;19936;-67
2024/04/13 03:00:21;;;;;;;;;;;;;;;7.19;51.13;96664.94;5386722;26;20002;-67
2024/04/13 03:02:47;;;;;;;;;;;;;;;7.22;50.86;96667.31;5387907;26;20753;-68
2024/04/13 03:05:12;;;;;;;;;;;;;;;7.19;50.39;96670.22;5392167;26;20247;-65
2024/04/13 03:07:38;;;;;;;;;;;;;;;7.24;50.81;96672.50;5394561;26;19929;-67
2024/04/13 03:10:05;;;;;;;;;;;;;;;7.27;51.41;96674.84;5394372;26;19933;-68
2024/04/13 03:12:30;;;;;;;;;;;;;;;7.29;51.60;96672.94;5398363;26;20391;-66
2024/04/13 03:14:56;;;;;;;;;;;;;;;7.30;51.98;96665.78;5395659;26;19929;-68
2024/04/13 03:17:21;;;;;;;;;;;;;;;7.28;51.47;96664.13;5395074;26;19929;-66
2024/04/13 03:19:46;;;;;;;;;;;;;;;7.22;50.89;96662.03;5381995;26;19981;-67
2024/04/13 03:22:11;;;;;;;;;;;;;;;7.17;49.89;96653.59;5389274;26;19929;-68
2024/04/13 03:24:37;;;;;;;;;;;;;;;7.09;49.92;96648.97;5391566;26;20247;-68
2024/04/13 03:27:02;;;;;;;;;;;;;;;7.09;50.05;96650.78;5389552;26;20008;-66
2024/04/13 03:29:27;;;;;;;;;;;;;;;7.08;50.27;96655.25;5391294;26;19929;-67
2024/04/13 03:31:53;;;;;;;;;;;;;;;7.07;50.47;96653.56;5395309;26;19975;-67
2024/04/13 03:34:18;;;;;;;;;;;;;;;7.10;50.81;96653.28;5389083;26;19936;-66
2024/04/13 03:36:43;;;;;;;;;;;;;;;7.06;50.75;96656.34;5394635;26;19940;-66
2024/04/13 03:39:08;;;;;;;;;;;;;;;7.05;50.57;96652.88;5384447;26;20011;-68
2024/04/13 03:41:34;;;;;;;;;;;;;;;7.10;50.66;96642.72;5394765;26;20309;-66
2024/04/13 03:43:59;;;;;;;;;;;;;;;7.12;51.45;96646.06;5390335;26;19932;-65
2024/04/13 03:46:25;;;;;;;;;;;;;;;7.16;51.35;96646.63;5395096;26;19940;-66
2024/04/13 03:48:50;;;;;;;;;;;;;;;7.20;51.59;96642.75;5393326;26;19929;-68
2024/04/13 03:51:16;;;;;;;;;;;;;;;7.23;51.89;96642.50;5395025;26;19929;-66
2024/04/13 03:53:41;;;;;;;;;;;;;;;7.21;52.83;96654.22;5393553;26;19936;-66
2024/04/13 03:56:06;;;;;;;;;;;;;;;7.21;52.70;96647.06;5394812;26;20453;-65
2024/04/13 03:58:32;;;;;;;;;;;;;;;7.20;51.86;96650.72;5392321;26;19937;-68
2024/04/13 04:00:57;;;;;;;;;;;;;;;7.10;51.90;96652.44;5383810;26;19929;-68
2024/04/13 04:03:23;;;;;;;;;;;;;;;7.08;52.51;96649.09;5394061;26;19937;-66
2024/04/13 04:05:51;;;;;;;;;;;;;;;7.15;53.10;96650.28;5395136;26;19929;-67
2024/04/13 04:08:16;;;;;;;;;;;;;;;7.19;52.38;96656.97;5393618;26;20440;-69
2024/04/13 04:10:41;;;;;;;;;;;;;;;7.19;52.07;96656.97;5394153;26;20186;-68
2024/04/13 04:13:07;;;;;;;;;;;;;;;7.19;52.17;96653.47;5394117;26;19933;-67
2024/04/13 04:15:32;;;;;;;;;;;;;;;7.21;52.63;96655.03;5394457;26;19997;-68
2024/04/13 04:17:58;;;;;;;;;;;;;;;7.23;52.27;96658.41;5393762;26;20224;-67
2024/04/13 04:20:23;;;;;;;;;;;;;;;7.24;52.35;96659.25;5394635;26;19929;-68
2024/04/13 04:22:48;;;;;;;;;;;;;;;7.23;51.58;96653.09;5394105;26;19947;-67
2024/04/13 04:25:13;;;;;;;;;;;;;;;7.20;51.92;96655.16;5389394;26;19940;-66
2024/04/13 04:27:39;;;;;;;;;;;;;;;7.21;51.90;96655.03;5389246;26;19981;-67
2024/04/13 04:30:04;;;;;;;;;;;;;;;7.19;51.10;96659.63;5392173;26;19949;-69
2024/04/13 04:32:29;;;;;;;;;;;;;;;7.15;50.93;96656.38;5393840;26;19929;-66
2024/04/13 04:34:55;;;;;;;;;;;;;;;7.17;51.74;96653.59;5384911;26;19935;-67
2024/04/13 04:37:20;;;;;;;;;;;;;;;7.15;51.59;96648.44;5393933;26;19936;-68
2024/04/13 04:39:46;;;;;;;;;;;;;;;7.14;50.70;96654.72;5385185;26;19937;-68
2024/04/13 04:42:11;;;;;;;;;;;;;;;7.12;50.88;96645.22;5392538;26;20414;-66
2024/04/13 04:44:36;;;;;;;;;;;;;;;7.09;51.29;96651.63;5391574;26;19929;-68
2024/04/13 04:47:01;;;;;;;;;;;;;;;7.08;50.54;96649.97;5394113;26;20429;-67
2024/04/13 04:49:27;;;;;;;;;;;;;;;6.96;52.14;96650.97;5393406;26;20293;-69
2024/04/13 04:51:52;;;;;;;;;;;;;;;7.00;52.65;96655.03;5392726;26;19940;-69
2024/04/13 04:54:19;;;;;;;;;;;;;;;6.99;51.87;96650.72;5391495;26;19937;-68
2024/04/13 04:56:44;;;;;;;;;;;;;;;7.00;51.60;96652.38;5392718;26;20014;-67
2024/04/13 04:59:10;;;;;;;;;;;;;;;7.06;51.46;96658.97;5393359;26;20356;-67
2024/04/13 05:01:35;;;;;;;;;;;;;;;7.12;51.15;96650.53;5393461;26;19936;-67
2024/04/13 05:04:00;;;;;;;;;;;;;;;7.10;50.66;96653.28;5393011;26;19937;-68
2024/04/13 05:06:25;;;;;;;;;;;;;;;7.14;51.42;96659.16;5394304;26;20168;-67
2024/04/13 05:08:51;;;;;;;;;;;;;;;7.20;51.39;96661.31;5386470;26;19945;-69
2024/04/13 05:11:16;;;;;;;;;;;;;;;7.28;51.57;96661.47;5390715;26;19937;-68
2024/04/13 05:13:41;;;;;;;;;;;;;;;7.27;51.39;96665.09;5391504;26;19936;-69
2024/04/13 05:16:08;;;;;;;;;;;;;;;7.37;52.04;96673.09;5393851;26;20039;-67
2024/04/13 05:18:33;;;;;;;;;;;;;;;7.49;51.07;96673.88;5394081;26;19932;-67
2024/04/13 05:20:59;;;;;;;;;;;;;;;7.50;50.31;96680.84;5393359;26;19929;-67
2024/04/13 05:23:24;;;;;;;;;;;;;;;7.60;50.60;96672.09;5393504;26;20448;-67
2024/04/13 05:25:49;;;;;;;;;;;;;;;7.62;51.23;96672.81;5389061;26;20292;-67
2024/04/13 05:28:14;;;;;;;;;;;;;;;7.71;51.70;96674.63;5393867;26;19940;-67
2024/04/13 05:30:45;;;;;;;;;;;;;;;7.76;50.80;96675.06;5387997;26;19929;-67
2024/04/13 05:33:10;;;;;;;;;;;;;;;7.88;51.11;96675.84;5393771;26;20014;-67
2024/04/13 05:35:35;;;;;;;;;;;;;;;8.01;50.92;96683.56;5390042;26;19936;-66
2024/04/13 05:38:01;;;;;;;;;;;;;;;7.99;49.91;96685.50;5394589;26;19935;-67
2024/04/13 05:40:26;;;;;;;;;;;;;;;7.92;50.09;96689.66;5390825;26;19936;-67
2024/04/13 05:42:51;;;;;;;;;;;;;;;8.06;50.84;96691.09;5394000;26;19929;-67
2024/04/13 05:45:16;;;;;;;;;;;;;;;8.19;50.51;96693.50;5392546;26;20118;-67
2024/04/13 05:47:42;;;;;;;;;;;;;;;8.30;49.70;96690.75;5393393;26;19928;-67
2024/04/13 05:50:07;;;;;;;;;;;;;;;8.38;50.04;96699.84;5393153;26;20341;-67
2024/04/13 05:52:33;;;;;;;;;;;;;;;8.49;49.96;96694.41;5393700;26;19937;-67
2024/04/13 05:54:58;;;;;;;;;;;;;;;8.65;50.51;96699.19;5381163;26;19929;-67
2024/04/13 05:57:23;;;;;;;;;;;;;;;8.90;50.94;96701.38;5393452;26;19998;-67
2024/04/13 05:59:49;;;;;;;;;;;;;;;9.06;51.46;96693.72;5389879;26;19985;-67
2024/04/13 06:02:14;;;;;;;;;;;;;;;9.29;51.67;96688.06;5391407;26;19929;-67
2024/04/13 06:04:39;;;;;;;;;;;;;;;9.50;51.45;96686.22;5384778;26;19933;-67
2024/04/13 06:07:04;;;;;;;;;;;;;;;9.72;51.04;96688.50;5391980;26;19941;-67
2024/04/13 06:09:30;;;;;;;;;;;;;;;9.93;51.32;96683.97;5379672;26;20664;-67
2024/04/13 06:11:55;;;;;;;;;;;;;;;10.10;50.83;96691.16;5382464;26;20350;-67
2024/04/13 06:14:20;;;;;;;;;;;;;;;10.31;50.88;96691.88;5390304;26;19948;-67
2024/04/13 06:16:46;;;;;;;;;;;;;;;10.45;50.70;96694.03;5391003;26;20380;-67
2024/04/13 06:19:13;;;;;;;;;;;;;;;10.68;50.74;96698.09;5390134;26;21605;-67
2024/04/13 06:21:38;;;;;;;;;;;;;;;10.87;50.85;96692.59;5377001;26;20479;-67
2024/04/13 06:24:04;;;;;;;;;;;;;;;11.07;50.46;96692.41;5373669;26;19969;-67
2024/04/13 06:26:29;;;;;;;;;;;;;;;11.29;51.05;96684.09;5388588;26;20630;-67
2024/04/13 06:28:54;;;;;;;;;;;;;;;11.49;50.91;96684.75;5363123;26;20379;-67
2024/04/13 06:31:19;;;;;;;;;;;;;;;11.62;50.58;96682.47;5352231;26;20262;-67
2024/04/13 06:33:45;;;;;;;;;;;;;;;11.84;50.64;96682.91;5381872;26;19996;-67
2024/04/13 06:36:10;;;;;;;;;;;;;;;12.09;51.45;96679.53;5389336;26;20340;-67
2024/04/13 06:38:35;;;;;;;;;;;;;;;12.38;51.14;96688.97;5377316;26;19948;-67
2024/04/13 06:41:00;;;;;;;;;;;;;;;12.57;50.59;96682.47;5385662;26;19929;-67
2024/04/13 06:43:26;;;;;;;;;;;;;;;12.68;50.52;96681.31;5390726;26;20529;-67
2024/04/13 06:45:51;;;;;;;;;;;;;;;12.86;50.44;96678.53;5378373;26;19929;-67
2024/04/13 06:48:16;;;;;;;;;;;;;;;13.00;50.21;96679.72;5370892;26;19993;-67
2024/04/13 06:50:43;;;;;;;;;;;;;;;13.24;50.04;96678.03;5380585;26;19929;-67
2024/04/13 06:53:08;;;;;;;;;;;;;;;13.09;49.71;96677.84;5388858;26;19929;-67
2024/04/13 06:55:33;;;;;;;;;;;;;;;12.92;51.20;96677.84;5380815;26;21772;-67
2024/04/13 06:57:59;;;;;;;;;;;;;;;12.93;50.37;96668.81;5388932;26;19973;-67
2024/04/13 07:00:25;;;;;;;;;;;;;;;12.77;51.30;96671.47;5378881;26;20614;-67
2024/04/13 07:02:50;;;;;;;;;;;;;;;13.01;51.10;96672.50;5387799;26;19929;-67
2024/04/13 07:05:15;;;;;;;;;;;;;;;12.82;50.80;96671.84;5381306;26;19929;-67
2024/04/13 07:07:40;;;;;;;;;;;;;;;13.24;50.09;96669.16;5391435;26;19960;-67
2024/04/13 07:10:06;;;;;;;;;;;;;;;13.65;48.71;96665.56;5390267;26;19929;-67
2024/04/13 07:12:31;;;;;;;;;;;;;;;14.00;47.98;96668.00;5382899;26;19940;-67
2024/04/13 07:14:57;;;;;;;;;;;;;;;13.50;48.75;96671.59;5378343;26;19933;-67
2024/04/13 07:17:22;;;;;;;;;;;;;;;12.51;51.35;96673.28;5377239;26;19933;-67
2024/04/13 07:19:47;;;;;;;;;;;;;;;11.87;54.91;96669.22;5391577;26;19947;-67
2024/04/13 07:22:13;;;;;;;;;;;;;;;12.33;53.40;96664.56;5392112;26;19933;-67
2024/04/13 07:24:38;;;;;;;;;;;;;;;13.67;49.44;96661.69;5391685;26;20002;-67
2024/04/13 07:27:04;;;;;;;;;;;;;;;13.15;49.31;96662.97;5391636;26;20030;-67
2024/04/13 07:29:29;;;;;;;;;;;;;;;13.33;50.47;96660.13;5391119;26;19937;-67
2024/04/13 07:31:54;;;;;;;;;;;;;;;12.71;51.81;96672.16;5385660;26;19929;-67
2024/04/13 07:34:19;;;;;;;;;;;;;;;13.68;49.71;96665.22;5394022;26;19936;-67
2024/04/13 07:36:45;;;;;;;;;;;;;;;14.44;48.02;96658.53;5389559;26;19933;-68
2024/04/13 07:39:12;;;;;;;;;;;;;;;13.22;51.92;96655.13;5395526;26;19961;-67
2024/04/13 07:41:37;;;;;;;;;;;;;;;14.42;48.90;96653.34;5384452;26;20204;-68
2024/04/13 07:44:02;;;;;;;;;;;;;;;14.76;47.79;96645.13;5392723;26;19928;-69
2024/04/13 07:46:28;;;;;;;;;;;;;;;15.00;47.90;96637.88;5394148;26;19929;-68
2024/04/13 07:48:53;;;;;;;;;;;;;;;15.63;45.93;96642.97;5394830;26;19936;-69
2024/04/13 07:51:19;;;;;;;;;;;;;;;16.07;44.44;96649.31;5394493;26;19935;-69
2024/04/13 07:53:44;;;;;;;;;;;;;;;15.29;45.61;96655.88;5395132;26;20411;-67
2024/04/13 07:56:10;;;;;;;;;;;;;;;15.86;45.06;96645.56;5394631;26;19953;-67
2024/04/13 07:58:35;;;;;;;;;;;;;;;16.30;42.69;96658.25;5394036;26;20320;-70
2024/04/13 08:01:00;;;;;;;;;;;;;;;15.84;43.85;96644.09;5389155;26;19995;-67
2024/04/13 08:03:25;;;;;;;;;;;;;;;14.98;45.14;96654.97;5395129;26;19936;-68
2024/04/13 08:05:51;;;;;;;;;;;;;;;15.23;45.41;96654.75;5393600;26;20740;-68
2024/04/13 08:08:16;;;;;;;;;;;;;;;15.94;43.78;96651.84;5394440;26;20434;-67
2024/04/13 08:10:42;;;;;;;;;;;;;;;14.90;45.98;96655.06;5394595;26;20161;-67
2024/04/13 08:13:07;;;;;;;;;;;;;;;15.24;46.13;96652.91;5394751;26;20450;-68
2024/04/13 08:15:36;;;;;;;;;;;;;;;16.21;44.37;96646.78;5393766;26;19933;-68
2024/04/13 08:18:01;;;;;;;;;;;;;;;16.64;42.12;96646.03;5395133;26;19929;-69
2024/04/13 08:20:27;;;;;;;;;;;;;;;16.31;41.76;96649.19;5388990;26;20155;-68
2024/04/13 08:22:52;;;;;;;;;;;;;;;16.46;42.27;96649.16;5394387;26;19929;-68
2024/04/13 08:25:19;;;;;;;;;;;;;;;16.36;43.30;96658.34;5390253;26;19964;-67
2024/04/13 08:27:44;;;;;;;;;;;;;;;16.36;42.77;96652.16;5394360;26;19951;-69
2024/04/13 08:30:11;;;;;;;;;;;;;;;15.72;44.47;96647.25;5385962;26;19930;-68
2024/04/13 08:32:37;;;;;;;;;;;;;;;16.87;41.90;96647.69;5391900;26;19980;-67
2024/04/13 08:35:03;;;;;;;;;;;;;;;16.77;41.92;96637.25;5393478;26;20328;-69
2024/04/13 08:37:28;;;;;;;;;;;;;;;17.55;39.74;96649.06;5392707;26;20444;-68
2024/04/13 08:39:53;;;;;;;;;;;;;;;17.15;40.50;96653.13;5382332;26;20006;-69
2024/04/13 08:42:20;;;;;;;;;;;;;;;16.12;43.06;96643.38;5389588;26;19929;-69
2024/04/13 08:44:45;;;;;;;;;;;;;;;15.27;44.58;96636.47;5385889;26;20367;-68
2024/04/13 08:47:10;;;;;;;;;;;;;;;14.96;46.27;96630.19;5386254;26;20304;-68
2024/04/13 08:49:39;;;;;;;;;;;;;;;16.08;43.77;96631.34;5392532;26;19935;-67
2024/04/13 08:52:05;;;;;;;;;;;;;;;15.29;45.44;96628.19;5390759;26;19940;-67
2024/04/13 08:54:31;;;;;;;;;;;;;;;16.24;43.58;96630.28;5394400;26;19940;-70
2024/04/13 08:56:56;;;;;;;;;;;;;;;16.80;41.86;96626.13;5389564;26;19933;-70
2024/04/13 08:59:21;;;;;;;;;;;;;;;15.48;44.94;96629.53;5389709;26;20316;-69
2024/04/13 09:01:47;;;;;;;;;;;;;;;16.80;41.57;96625.28;5383684;26;19936;-71
2024/04/13 09:04:12;;;;;;;;;;;;;;;15.22;45.24;96628.94;5382729;26;19941;-70
2024/04/13 09:06:39;;;;;;;;;;;;;;;16.44;42.18;96633.22;5393769;26;20124;-68
2024/04/13 09:09:08;;;;;;;;;;;;;;;15.49;44.13;96626.66;5386090;26;19929;-68
2024/04/13 09:11:36;;;;;;;;;;;;;;;16.31;43.97;96625.81;5393361;26;19929;-70
2024/04/13 09:14:02;;;;;;;;;;;;;;;16.62;41.91;96629.25;5387296;26;20321;-68
2024/04/13 09:16:28;;;;;;;;;;;;;;;14.31;46.79;96632.34;5390531;26;20382;-68
2024/04/13 09:18:53;;;;;;;;;;;;;;;15.94;43.89;96625.00;5388474;26;19963;-70
2024/04/13 09:21:18;;;;;;;;;;;;;;;17.31;41.26;96623.44;5392821;26;19929;-68
2024/04/13 09:23:44;;;;;;;;;;;;;;;17.82;38.95;96626.81;5389032;26;19998;-69
2024/04/13 09:26:09;;;;;;;;;;;;;;;16.09;41.94;96627.66;5379748;26;20488;-68
2024/04/13 09:28:39;;;;;;;;;;;;;;;14.90;45.84;96638.13;5388065;26;19937;-70
2024/04/13 09:31:04;;;;;;;;;;;;;;;15.46;44.15;96634.22;5392962;26;19941;-69
2024/04/13 09:33:30;;;;;;;;;;;;;;;15.48;44.94;96625.00;5392801;26;20023;-70
2024/04/13 09:35:58;;;;;;;;;;;;;;;17.74;39.92;96617.06;5386590;26;19937;-67
2024/04/13 09:38:23;;;;;;;;;;;;;;;17.82;39.40;96616.03;5383964;26;20284;-68
2024/04/13 09:40:55;;;;;;;;;;;;;;;17.44;39.79;96618.13;5388299;26;19929;-69
2024/04/13 09:43:21;;;;;;;;;;;;;;;17.88;38.69;96605.31;5384415;26;20582;-68
2024/04/13 09:45:47;;;;;;;;;;;;;;;18.30;38.12;96607.97;5392458;26;19936;-68
2024/04/13 09:48:13;;;;;;;;;;;;;;;18.96;36.67;96604.72;5393614;26;19936;-69
2024/04/13 09:50:38;;;;;;;;;;;;;;;18.53;38.69;96605.94;5390137;26;20612;-67
2024/04/13 09:53:03;;;;;;;;;;;;;;;19.56;35.46;96609.25;5391306;26;19936;-68
2024/04/13 09:55:29;;;;;;;;;;;;;;;19.47;36.03;96602.41;5391760;26;19936;-69
2024/04/13 09:57:54;;;;;;;;;;;;;;;19.26;35.95;96590.81;5381229;26;19957;-65
2024/04/13 10:00:20;;;;;;;;;;;;;;;19.14;37.18;96592.50;5388244;26;19930;-65
2024/04/13 10:02:45;;;;;;;;;;;;;;;18.71;36.85;96599.97;5391278;26;20462;-64
2024/04/13 10:05:10;;;;;;;;;;;;;;;17.75;38.52;96600.69;5390449;26;20366;-65
2024/04/13 10:07:36;;;;;;;;;;;;;;;18.92;36.78;96598.09;5390369;26;19961;-65
2024/04/13 10:10:02;;;;;;;;;;;;;;;18.46;38.19;96589.72;5388836;26;19936;-65
2024/04/13 10:12:32;;;;;;;;;;;;;;;18.91;37.38;96591.03;5389863;26;19957;-65
2024/04/13 10:14:58;;;;;;;;;;;;;;;19.72;35.53;96585.53;5390937;26;19998;-66
2024/04/13 10:17:23;;;;;;;;;;;;;;;19.79;34.87;96586.31;5387655;26;20319;-65
2024/04/13 10:19:48;;;;;;;;;;;;;;;18.77;35.87;96588.34;5387397;26;20356;-65
2024/04/13 10:22:13;;;;;;;;;;;;;;;17.28;39.72;96585.09;5387942;26;19940;-65
2024/04/13 10:24:45;;;;;;;;;;;;;;;18.93;36.89;96579.00;5391874;26;19933;-65
2024/04/13 10:27:11;;;;;;;;;;;;;;;19.27;35.26;96578.16;5383629;26;20499;-65
2024/04/13 10:29:40;;;;;;;;;;;;;;;17.73;37.27;96575.00;5391679;26;19929;-64
2024/04/13 10:32:17;;;;;;;;;;;;;;;18.24;36.79;96572.91;5392298;26;19929;-65
2024/04/13 10:34:43;;;;;;;;;;;;;;;19.04;35.71;96574.03;5389475;26;19936;-65
2024/04/13 10:37:27;;;;;;;;;;;;;;;18.63;37.17;96563.22;5386721;26;19937;-64
2024/04/13 10:39:56;;;;;;;;;;;;;;;19.62;34.90;96568.94;5378685;26;20237;-65
2024/04/13 10:42:32;;;;;;;;;;;;;;;18.75;35.96;96557.22;5385319;26;20468;-65
2024/04/13 10:44:57;;;;;;;;;;;;;;;17.98;37.08;96563.72;5392186;26;20366;-65
2024/04/13 10:47:22;;;;;;;;;;;;;;;18.55;36.70;96558.84;5390062;26;19936;-65
2024/04/13 10:49:47;;;;;;;;;;;;;;;18.98;35.62;96558.66;5390195;26;20394;-64
2024/04/13 10:52:13;;;;;;;;;;;;;;;19.69;35.44;96551.66;5386538;26;19968;-65
2024/04/13 10:54:38;;;;;;;;;;;;;;;20.29;33.85;96559.72;5390897;26;20286;-65
2024/04/13 10:57:05;;;;;;;;;;;;;;;21.29;32.64;96542.88;5391782;26;19933;-65
2024/04/13 10:59:30;;;;;;;;;;;;;;;21.03;33.16;96540.19;5391329;26;19929;-66
2024/04/13 11:01:55;;;;;;;;;;;;;;;20.34;34.46;96540.94;5387879;26;19988;-65
2024/04/13 11:04:20;;;;;;;;;;;;;;;20.30;34.84;96545.97;5391789;26;19945;-65
2024/04/13 11:06:46;;;;;;;;;;;;;;;20.84;32.98;96539.34;5382120;26;19942;-64
2024/04/13 11:09:12;;;;;;;;;;;;;;;20.35;33.53;96538.03;5386155;26;19937;-63
2024/04/13 11:11:37;;;;;;;;;;;;;;;20.77;33.76;96531.28;5388392;26;20322;-66
2024/04/13 11:14:03;;;;;;;;;;;;;;;21.08;32.64;96526.81;5390160;26;19928;-64
2024/04/13 11:16:28;;;;;;;;;;;;;;;21.46;32.19;96519.59;5386031;26;20479;-66
2024/04/13 11:18:53;;;;;;;;;;;;;;;19.33;35.17;96529.56;5393512;26;19929;-62
2024/04/13 11:21:20;;;;;;;;;;;;;;;20.44;32.36;96527.78;5362468;26;19929;-66
2024/04/13 11:23:46;;;;;;;;;;;;;;;20.66;33.10;96529.31;5392827;26;20278;-66
2024/04/13 11:26:11;;;;;;;;;;;;;;;19.95;33.00;96514.75;5389007;26;19933;-62
2024/04/13 11:28:36;;;;;;;;;;;;;;;19.07;34.43;96509.66;5393088;26;19929;-62
2024/04/13 11:31:01;;;;;;;;;;;;;;;19.72;34.29;96504.50;5379052;26;20692;-67
2024/04/13 11:33:27;;;;;;;;;;;;;;;20.23;34.12;96510.84;5385782;26;20283;-65
2024/04/13 11:35:56;;;;;;;;;;;;;;;20.50;34.03;96507.16;5393128;26;20000;-66
2024/04/13 11:38:21;;;;;;;;;;;;;;;18.79;35.42;96509.91;5391079;26;19965;-66
2024/04/13 11:40:48;;;;;;;;;;;;;;;18.40;36.97;96499.75;5385455;26;20410;-66
2024/04/13 11:43:14;;;;;;;;;;;;;;;19.20;35.44;96487.22;5389155;26;20258;-63
2024/04/13 11:45:39;;;;;;;;;;;;;;;19.03;35.57;96496.78;5392994;26;20010;-67
2024/04/13 11:48:04;;;;;;;;;;;;;;;19.59;35.50;96479.19;5390405;26;19933;-64
2024/04/13 11:50:30;;;;;;;;;;;;;;;19.35;35.23;96471.81;5392391;26;20265;-66
2024/04/13 11:52:56;;;;;;;;;;;;;;;21.10;32.21;96470.59;5388187;26;20274;-64
2024/04/13 11:55:21;;;;;;;;;;;;;;;20.03;32.88;96475.88;5393230;26;19933;-66
2024/04/13 11:57:47;;;;;;;;;;;;;;;21.04;31.76;96471.47;5382662;26;19940;-65
2024/04/13 12:00:15;;;;;;;;;;;;;;;21.85;30.60;96473.22;5393550;26;20397;-66
2024/04/13 12:02:40;;;;;;;;;;;;;;;20.22;33.35;96478.63;5395271;26;20312;-64
2024/04/13 12:05:06;;;;;;;;;;;;;;;20.40;33.45;96472.50;5394275;26;20500;-64
2024/04/13 12:07:31;;;;;;;;;;;;;;;21.09;32.25;96451.88;5391849;26;19929;-64
2024/04/13 12:09:57;;;;;;;;;;;;;;;21.10;32.53;96446.22;5383924;26;20335;-66
2024/04/13 12:12:22;;;;;;;;;;;;;;;22.29;30.59;96453.19;5390892;26;19940;-64
2024/04/13 12:14:49;;;;;;;;;;;;;;;21.16;31.86;96432.84;5392354;26;19936;-66
2024/04/13 12:17:14;;;;;;;;;;;;;;;20.21;32.82;96442.69;5389300;26;19929;-66
2024/04/13 12:19:39;;;;;;;;;;;;;;;21.05;31.40;96424.44;5379396;26;19929;-65
2024/04/13 12:22:05;;;;;;;;;;;;;;;21.90;30.52;96426.47;5391236;26;20377;-66
2024/04/13 12:24:30;;;;;;;;;;;;;;;21.81;31.16;96422.41;5390114;26;19930;-68
2024/04/13 12:26:55;;;;;;;;;;;;;;;23.31;28.20;96411.50;5380834;26;20444;-68
2024/04/13 12:29:21;;;;;;;;;;;;;;;21.31;29.85;96411.63;5384441;26;19960;-66
2024/04/13 12:31:46;;;;;;;;;;;;;;;22.37;28.34;96405.94;5388513;26;19929;-68
2024/04/13 12:34:11;;;;;;;;;;;;;;;19.96;31.63;96407.53;5387537;26;19992;-70
2024/04/13 12:36:37;;;;;;;;;;;;;;;20.18;32.12;96407.13;5389292;26;19940;-68
2024/04/13 12:39:03;;;;;;;;;;;;;;;22.64;28.32;96394.66;5377229;26;19980;-67
2024/04/13 12:41:28;;;;;;;;;;;;;;;22.91;28.94;96396.84;5383581;26;20016;-68